sensor_id;sensor_type;location;lat;lon;timestamp;pressure;altitude;pressure_sealevel;temperature;humidity
55217;BME280;41086;46.736;15.666;2023-09-12T00:01:11;98270.50;;;20.67;100.00
55217;BME280;41086;46.736;15.666;2023-09-12T00:03:37;98269.50;;;20.68;100.00
55217;BME280;41086;46.736;15.666;2023-09-12T00:06:04;98268.09;;;20.80;100.00
55217;BME280;41086;46.736;15.666;2023-09-12T00:08:31;98262.47;;;20.59;98.84
55217;BME280;41086;46.736;15.666;2023-09-12T00:11:03;98260.19;;;20.23;100.00
55217;BME280;41086;46.736;15.666;2023-09-12T00:13:31;98271.66;;;20.09;100.00
55217;BME280;41086;46.736;15.666;2023-09-12T00:15:58;98271.81;;;20.07;100.00
55217;BME280;41086;46.736;15.666;2023-09-12T00:18:25;98267.47;;;19.98;100.00
55217;BME280;41086;46.736;15.666;2023-09-12T00:20:52;98266.66;;;19.98;100.00
55217;BME280;41086;46.736;15.666;2023-09-12T00:23:21;98260.91;;;20.01;100.00
55217;BME280;41086;46.736;15.666;2023-09-12T00:25:49;98260.03;;;20.17;100.00
55217;BME280;41086;46.736;15.666;2023-09-12T00:28:18;98259.34;;;20.31;100.00
55217;BME280;41086;46.736;15.666;2023-09-12T00:30:45;98261.69;;;20.34;100.00
55217;BME280;41086;46.736;15.666;2023-09-12T00:33:12;98252.44;;;20.36;100.00
55217;BME280;41086;46.736;15.666;2023-09-12T00:35:39;98255.75;;;20.47;100.00
55217;BME280;41086;46.736;15.666;2023-09-12T00:38:06;98247.34;;;20.50;100.00
55217;BME280;41086;46.736;15.666;2023-09-12T00:40:33;98245.13;;;20.62;100.00
55217;BME280;41086;46.736;15.666;2023-09-12T00:42:59;98246.66;;;20.56;100.00
55217;BME280;41086;46.736;15.666;2023-09-12T00:45:26;98231.69;;;20.45;100.00
55217;BME280;41086;46.736;15.666;2023-09-12T00:47:53;98233.38;;;20.46;100.00
55217;BME280;41086;46.736;15.666;2023-09-12T00:50:21;98242.63;;;20.44;100.00
55217;BME280;41086;46.736;15.666;2023-09-12T00:52:50;98241.53;;;20.13;100.00
55217;BME280;41086;46.736;15.666;2023-09-12T00:55:17;98235.00;;;20.08;100.00
55217;BME280;41086;46.736;15.666;2023-09-12T00:57:45;98236.34;;;20.12;100.00
55217;BME280;41086;46.736;15.666;2023-09-12T01:00:13;98229.63;;;20.00;100.00
55217;BME280;41086;46.736;15.666;2023-09-12T01:02:45;98234.88;;;19.85;100.00
55217;BME280;41086;46.736;15.666;2023-09-12T01:05:15;98233.19;;;19.67;100.00
55217;BME280;41086;46.736;15.666;2023-09-12T01:07:43;98232.69;;;19.56;100.00
55217;BME280;41086;46.736;15.666;2023-09-12T01:10:10;98228.00;;;19.33;100.00
55217;BME280;41086;46.736;15.666;2023-09-12T01:12:37;98235.69;;;19.28;100.00
55217;BME280;41086;46.736;15.666;2023-09-12T01:15:05;98237.00;;;19.08;100.00
55217;BME280;41086;46.736;15.666;2023-09-12T01:17:36;98239.03;;;19.06;100.00
55217;BME280;41086;46.736;15.666;2023-09-12T01:20:05;98242.38;;;19.16;100.00
55217;BME280;41086;46.736;15.666;2023-09-12T01:22:55;98248.97;;;19.38;100.00
55217;BME280;41086;46.736;15.666;2023-09-12T01:25:34;98246.94;;;19.32;100.00
55217;BME280;41086;46.736;15.666;2023-09-12T01:28:08;98246.44;;;19.20;100.00
55217;BME280;41086;46.736;15.666;2023-09-12T01:30:36;98240.88;;;19.30;100.00
55217;BME280;41086;46.736;15.666;2023-09-12T01:33:05;98240.25;;;19.27;100.00
55217;BME280;41086;46.736;15.666;2023-09-12T01:35:32;98246.94;;;19.23;100.00
55217;BME280;41086;46.736;15.666;2023-09-12T01:37:59;98239.72;;;19.32;100.00
55217;BME280;41086;46.736;15.666;2023-09-12T01:40:55;98244.78;;;19.52;100.00
55217;BME280;41086;46.736;15.666;2023-09-12T01:43:24;98241.47;;;19.66;100.00
55217;BME280;41086;46.736;15.666;2023-09-12T01:45:57;98241.09;;;19.77;100.00
55217;BME280;41086;46.736;15.666;2023-09-12T01:48:30;98254.53;;;19.85;100.00
55217;BME280;41086;46.736;15.666;2023-09-12T01:51:01;98252.84;;;20.01;100.00
55217;BME280;41086;46.736;15.666;2023-09-12T01:53:28;98246.59;;;20.08;100.00
55217;BME280;41086;46.736;15.666;2023-09-12T01:55:56;98252.66;;;20.10;100.00
55217;BME280;41086;46.736;15.666;2023-09-12T01:58:25;98252.63;;;20.19;100.00
55217;BME280;41086;46.736;15.666;2023-09-12T02:00:52;98256.66;;;20.23;100.00
55217;BME280;41086;46.736;15.666;2023-09-12T02:03:21;98249.09;;;20.26;100.00
55217;BME280;41086;46.736;15.666;2023-09-12T02:05:48;98256.81;;;20.29;100.00
55217;BME280;41086;46.736;15.666;2023-09-12T02:08:15;98246.28;;;20.11;100.00
55217;BME280;41086;46.736;15.666;2023-09-12T02:10:41;98252.00;;;19.92;99.45
55217;BME280;41086;46.736;15.666;2023-09-12T02:13:08;98248.00;;;19.72;100.00
55217;BME280;41086;46.736;15.666;2023-09-12T02:15:35;98238.75;;;19.66;100.00
55217;BME280;41086;46.736;15.666;2023-09-12T02:18:02;98245.09;;;19.65;100.00
55217;BME280;41086;46.736;15.666;2023-09-12T02:20:30;98238.75;;;19.58;100.00
55217;BME280;41086;46.736;15.666;2023-09-12T02:22:57;98241.25;;;19.59;100.00
55217;BME280;41086;46.736;15.666;2023-09-12T02:25:24;98241.44;;;19.49;100.00
55217;BME280;41086;46.736;15.666;2023-09-12T02:27:51;98251.47;;;19.31;100.00
55217;BME280;41086;46.736;15.666;2023-09-12T02:30:18;98250.81;;;19.29;100.00
55217;BME280;41086;46.736;15.666;2023-09-12T02:32:44;98248.81;;;19.47;100.00
55217;BME280;41086;46.736;15.666;2023-09-12T02:35:11;98252.00;;;19.59;100.00
55217;BME280;41086;46.736;15.666;2023-09-12T02:37:38;98252.34;;;19.64;100.00
55217;BME280;41086;46.736;15.666;2023-09-12T02:40:06;98250.81;;;19.54;100.00
55217;BME280;41086;46.736;15.666;2023-09-12T02:42:33;98250.81;;;19.54;100.00
55217;BME280;41086;46.736;15.666;2023-09-12T02:45:00;98254.88;;;19.58;100.00
55217;BME280;41086;46.736;15.666;2023-09-12T02:47:27;98253.34;;;19.63;100.00
55217;BME280;41086;46.736;15.666;2023-09-12T02:49:53;98251.34;;;19.57;100.00
55217;BME280;41086;46.736;15.666;2023-09-12T02:52:20;98248.66;;;19.49;100.00
55217;BME280;41086;46.736;15.666;2023-09-12T02:54:47;98243.09;;;19.42;100.00
55217;BME280;41086;46.736;15.666;2023-09-12T02:57:14;98242.09;;;19.35;100.00
55217;BME280;41086;46.736;15.666;2023-09-12T02:59:41;98244.94;;;19.42;100.00
55217;BME280;41086;46.736;15.666;2023-09-12T03:02:08;98227.16;;;19.33;100.00
55217;BME280;41086;46.736;15.666;2023-09-12T03:04:35;98247.13;;;19.30;100.00
55217;BME280;41086;46.736;15.666;2023-09-12T03:07:02;98247.63;;;19.50;100.00
55217;BME280;41086;46.736;15.666;2023-09-12T03:09:29;98248.31;;;19.44;100.00
55217;BME280;41086;46.736;15.666;2023-09-12T03:11:56;98258.53;;;19.40;99.97
55217;BME280;41086;46.736;15.666;2023-09-12T03:14:22;98254.66;;;19.26;99.09
55217;BME280;41086;46.736;15.666;2023-09-12T03:16:49;98251.56;;;18.97;100.00
55217;BME280;41086;46.736;15.666;2023-09-12T03:19:16;98246.09;;;18.72;100.00
55217;BME280;41086;46.736;15.666;2023-09-12T03:21:43;98243.75;;;18.69;100.00
55217;BME280;41086;46.736;15.666;2023-09-12T03:24:10;98239.41;;;18.68;100.00
55217;BME280;41086;46.736;15.666;2023-09-12T03:26:36;98240.31;;;18.85;100.00
55217;BME280;41086;46.736;15.666;2023-09-12T03:29:04;98245.59;;;19.11;100.00
55217;BME280;41086;46.736;15.666;2023-09-12T03:31:31;98246.94;;;19.32;100.00
55217;BME280;41086;46.736;15.666;2023-09-12T03:33:58;98247.97;;;19.63;100.00
55217;BME280;41086;46.736;15.666;2023-09-12T03:36:25;98246.94;;;19.40;100.00
55217;BME280;41086;46.736;15.666;2023-09-12T03:38:52;98251.66;;;19.38;100.00
55217;BME280;41086;46.736;15.666;2023-09-12T03:41:19;98245.56;;;18.95;100.00
55217;BME280;41086;46.736;15.666;2023-09-12T03:43:48;98250.25;;;18.93;100.00
55217;BME280;41086;46.736;15.666;2023-09-12T03:46:15;98249.47;;;19.17;100.00
55217;BME280;41086;46.736;15.666;2023-09-12T03:48:42;98252.16;;;19.25;100.00
55217;BME280;41086;46.736;15.666;2023-09-12T03:51:12;98254.84;;;19.25;100.00
55217;BME280;41086;46.736;15.666;2023-09-12T03:53:42;98250.47;;;19.24;100.00
55217;BME280;41086;46.736;15.666;2023-09-12T03:56:09;98250.31;;;19.25;100.00
55217;BME280;41086;46.736;15.666;2023-09-12T03:58:40;98253.16;;;19.24;100.00
55217;BME280;41086;46.736;15.666;2023-09-12T04:01:08;98249.13;;;19.20;100.00
55217;BME280;41086;46.736;15.666;2023-09-12T04:03:35;98253.66;;;19.27;99.58
55217;BME280;41086;46.736;15.666;2023-09-12T04:06:02;98250.34;;;18.75;100.00
55217;BME280;41086;46.736;15.666;2023-09-12T04:08:29;98255.75;;;18.91;100.00
55217;BME280;41086;46.736;15.666;2023-09-12T04:10:56;98257.06;;;18.45;100.00
55217;BME280;41086;46.736;15.666;2023-09-12T04:13:23;98250.94;;;18.26;100.00
55217;BME280;41086;46.736;15.666;2023-09-12T04:15:50;98257.97;;;18.19;100.00
55217;BME280;41086;46.736;15.666;2023-09-12T04:18:17;98258.63;;;18.21;100.00
55217;BME280;41086;46.736;15.666;2023-09-12T04:20:44;98256.94;;;18.20;100.00
55217;BME280;41086;46.736;15.666;2023-09-12T04:23:10;98255.97;;;18.29;100.00
55217;BME280;41086;46.736;15.666;2023-09-12T04:25:37;98256.91;;;18.46;100.00
55217;BME280;41086;46.736;15.666;2023-09-12T04:28:04;98256.44;;;18.59;100.00
55217;BME280;41086;46.736;15.666;2023-09-12T04:30:31;98258.91;;;18.44;100.00
55217;BME280;41086;46.736;15.666;2023-09-12T04:32:58;98261.63;;;18.52;100.00
55217;BME280;41086;46.736;15.666;2023-09-12T04:35:26;98256.91;;;18.46;100.00
55217;BME280;41086;46.736;15.666;2023-09-12T04:37:53;98260.44;;;18.47;100.00
55217;BME280;41086;46.736;15.666;2023-09-12T04:40:19;98261.97;;;18.49;100.00
55217;BME280;41086;46.736;15.666;2023-09-12T04:42:46;98258.84;;;18.62;100.00
55217;BME280;41086;46.736;15.666;2023-09-12T04:45:13;98270.91;;;18.66;100.00
55217;BME280;41086;46.736;15.666;2023-09-12T04:47:40;98264.72;;;18.66;100.00
55217;BME280;41086;46.736;15.666;2023-09-12T04:50:07;98273.66;;;18.74;100.00
55217;BME280;41086;46.736;15.666;2023-09-12T04:52:34;98271.97;;;18.73;100.00
55217;BME280;41086;46.736;15.666;2023-09-12T04:55:01;98273.81;;;18.73;100.00
55217;BME280;41086;46.736;15.666;2023-09-12T04:57:28;98266.16;;;18.52;100.00
55217;BME280;41086;46.736;15.666;2023-09-12T04:59:57;98268.03;;;18.25;100.00
55217;BME280;41086;46.736;15.666;2023-09-12T05:02:27;98275.75;;;18.28;100.00
55217;BME280;41086;46.736;15.666;2023-09-12T05:04:54;98276.50;;;18.38;100.00
55217;BME280;41086;46.736;15.666;2023-09-12T05:07:22;98270.84;;;18.50;100.00
55217;BME280;41086;46.736;15.666;2023-09-12T05:09:50;98280.97;;;18.64;100.00
55217;BME280;41086;46.736;15.666;2023-09-12T05:12:17;98283.09;;;18.78;100.00
55217;BME280;41086;46.736;15.666;2023-09-12T05:14:45;98283.97;;;18.87;100.00
55217;BME280;41086;46.736;15.666;2023-09-12T05:17:12;98285.47;;;18.90;100.00
55217;BME280;41086;46.736;15.666;2023-09-12T05:19:39;98286.78;;;18.86;100.00
55217;BME280;41086;46.736;15.666;2023-09-12T05:22:05;98292.00;;;18.87;100.00
55217;BME280;41086;46.736;15.666;2023-09-12T05:24:32;98289.66;;;18.84;100.00
55217;BME280;41086;46.736;15.666;2023-09-12T05:26:59;98289.31;;;18.87;100.00
55217;BME280;41086;46.736;15.666;2023-09-12T05:29:26;98281.72;;;19.25;100.00
55217;BME280;41086;46.736;15.666;2023-09-12T05:31:53;98289.25;;;19.38;100.00
55217;BME280;41086;46.736;15.666;2023-09-12T05:34:20;98295.84;;;19.35;100.00
55217;BME280;41086;46.736;15.666;2023-09-12T05:36:46;98294.47;;;19.23;100.00
55217;BME280;41086;46.736;15.666;2023-09-12T05:39:13;98301.31;;;19.09;100.00
55217;BME280;41086;46.736;15.666;2023-09-12T05:41:40;98298.00;;;19.32;100.00
55217;BME280;41086;46.736;15.666;2023-09-12T05:44:07;98292.13;;;19.36;100.00
55217;BME280;41086;46.736;15.666;2023-09-12T05:46:34;98304.22;;;19.40;100.00
55217;BME280;41086;46.736;15.666;2023-09-12T05:49:01;98303.72;;;19.37;100.00
55217;BME280;41086;46.736;15.666;2023-09-12T05:51:28;98313.81;;;19.51;100.00
55217;BME280;41086;46.736;15.666;2023-09-12T05:53:55;98311.00;;;19.69;100.00
55217;BME280;41086;46.736;15.666;2023-09-12T05:56:22;98302.94;;;19.93;100.00
55217;BME280;41086;46.736;15.666;2023-09-12T05:58:48;98299.72;;;20.23;100.00
55217;BME280;41086;46.736;15.666;2023-09-12T06:01:17;98301.53;;;20.55;100.00
55217;BME280;41086;46.736;15.666;2023-09-12T06:03:44;98304.53;;;20.44;100.00
55217;BME280;41086;46.736;15.666;2023-09-12T06:06:12;98289.22;;;20.61;100.00
55217;BME280;41086;46.736;15.666;2023-09-12T06:08:39;98294.63;;;20.44;100.00
55217;BME280;41086;46.736;15.666;2023-09-12T06:11:06;98297.88;;;20.07;100.00
55217;BME280;41086;46.736;15.666;2023-09-12T06:13:33;98289.66;;;19.84;100.00
55217;BME280;41086;46.736;15.666;2023-09-12T06:16:02;98280.38;;;20.11;100.00
55217;BME280;41086;46.736;15.666;2023-09-12T06:18:28;98297.81;;;20.40;100.00
55217;BME280;41086;46.736;15.666;2023-09-12T06:21:00;98285.53;;;20.53;100.00
55217;BME280;41086;46.736;15.666;2023-09-12T06:23:32;98274.88;;;20.76;100.00
55217;BME280;41086;46.736;15.666;2023-09-12T06:25:59;98290.91;;;21.01;100.00
55217;BME280;41086;46.736;15.666;2023-09-12T06:28:28;98292.78;;;21.23;100.00
55217;BME280;41086;46.736;15.666;2023-09-12T06:30:55;98286.81;;;21.44;100.00
55217;BME280;41086;46.736;15.666;2023-09-12T06:33:25;98295.53;;;21.46;100.00
55217;BME280;41086;46.736;15.666;2023-09-12T06:35:52;98292.53;;;21.64;100.00
55217;BME280;41086;46.736;15.666;2023-09-12T06:38:22;98297.28;;;21.85;100.00
55217;BME280;41086;46.736;15.666;2023-09-12T06:40:49;98297.47;;;21.61;100.00
55217;BME280;41086;46.736;15.666;2023-09-12T06:43:16;98298.94;;;21.86;100.00
55217;BME280;41086;46.736;15.666;2023-09-12T06:45:43;98302.53;;;22.02;100.00
55217;BME280;41086;46.736;15.666;2023-09-12T06:48:10;98304.38;;;22.54;100.00
55217;BME280;41086;46.736;15.666;2023-09-12T06:50:37;98305.22;;;22.84;99.54
55217;BME280;41086;46.736;15.666;2023-09-12T06:53:05;98307.63;;;23.09;97.94
55217;BME280;41086;46.736;15.666;2023-09-12T06:55:36;98306.41;;;23.26;96.30
55217;BME280;41086;46.736;15.666;2023-09-12T06:58:03;98316.06;;;23.35;96.18
55217;BME280;41086;46.736;15.666;2023-09-12T07:00:30;98314.63;;;23.03;97.60
55217;BME280;41086;46.736;15.666;2023-09-12T07:02:58;98312.53;;;23.20;96.47
55217;BME280;41086;46.736;15.666;2023-09-12T07:05:25;98317.09;;;23.56;97.19
55217;BME280;41086;46.736;15.666;2023-09-12T07:07:52;98319.25;;;23.82;94.21
55217;BME280;41086;46.736;15.666;2023-09-12T07:10:19;98316.56;;;23.82;93.96
55217;BME280;41086;46.736;15.666;2023-09-12T07:12:52;98318.84;;;23.63;93.11
55217;BME280;41086;46.736;15.666;2023-09-12T07:15:20;98322.63;;;23.69;93.61
55217;BME280;41086;46.736;15.666;2023-09-12T07:17:47;98316.25;;;23.92;90.91
55217;BME280;41086;46.736;15.666;2023-09-12T07:20:14;98327.03;;;23.70;90.33
55217;BME280;41086;46.736;15.666;2023-09-12T07:22:42;98320.31;;;24.30;88.68
55217;BME280;41086;46.736;15.666;2023-09-12T07:25:09;98309.69;;;24.57;85.15
55217;BME280;41086;46.736;15.666;2023-09-12T07:27:38;98317.75;;;24.50;83.99
55217;BME280;41086;46.736;15.666;2023-09-12T07:30:05;98327.25;;;24.68;83.91
55217;BME280;41086;46.736;15.666;2023-09-12T07:32:33;98327.50;;;25.14;81.30
55217;BME280;41086;46.736;15.666;2023-09-12T07:34:59;98325.88;;;25.27;79.11
55217;BME280;41086;46.736;15.666;2023-09-12T07:37:26;98332.66;;;25.03;78.91
55217;BME280;41086;46.736;15.666;2023-09-12T07:39:53;98325.88;;;25.27;78.36
55217;BME280;41086;46.736;15.666;2023-09-12T07:42:23;98333.81;;;25.22;77.89
55217;BME280;41086;46.736;15.666;2023-09-12T07:44:51;98333.72;;;25.08;78.27
55217;BME280;41086;46.736;15.666;2023-09-12T07:47:18;98326.75;;;25.34;76.79
55217;BME280;41086;46.736;15.666;2023-09-12T07:49:45;98331.44;;;25.60;76.97
55217;BME280;41086;46.736;15.666;2023-09-12T07:52:12;98327.53;;;25.96;75.30
55217;BME280;41086;46.736;15.666;2023-09-12T07:54:39;98326.91;;;25.87;74.69
55217;BME280;41086;46.736;15.666;2023-09-12T07:57:06;98326.94;;;26.00;76.14
55217;BME280;41086;46.736;15.666;2023-09-12T07:59:33;98319.34;;;26.75;72.36
55217;BME280;41086;46.736;15.666;2023-09-12T08:02:00;98327.50;;;26.75;72.75
55217;BME280;41086;46.736;15.666;2023-09-12T08:04:26;98329.25;;;27.22;70.24
55217;BME280;41086;46.736;15.666;2023-09-12T08:06:53;98334.31;;;27.56;69.09
55217;BME280;41086;46.736;15.666;2023-09-12T08:09:46;98335.22;;;27.82;67.93
55217;BME280;41086;46.736;15.666;2023-09-12T08:12:11;98329.84;;;28.07;66.56
55217;BME280;41086;46.736;15.666;2023-09-12T08:14:38;98326.56;;;28.48;62.11
55217;BME280;41086;46.736;15.666;2023-09-12T08:17:05;98343.88;;;28.79;63.06
55217;BME280;41086;46.736;15.666;2023-09-12T08:19:33;98337.22;;;28.93;62.04
55217;BME280;41086;46.736;15.666;2023-09-12T08:22:00;98335.41;;;29.43;60.13
55217;BME280;41086;46.736;15.666;2023-09-12T08:24:26;98334.53;;;29.42;58.76
55217;BME280;41086;46.736;15.666;2023-09-12T08:26:53;98327.41;;;30.01;55.99
55217;BME280;41086;46.736;15.666;2023-09-12T08:29:21;98336.44;;;30.32;56.43
55217;BME280;41086;46.736;15.666;2023-09-12T08:31:48;98337.38;;;30.50;55.67
55217;BME280;41086;46.736;15.666;2023-09-12T08:34:14;98335.22;;;30.75;55.21
55217;BME280;41086;46.736;15.666;2023-09-12T08:36:41;98330.63;;;30.10;53.46
55217;BME280;41086;46.736;15.666;2023-09-12T08:39:14;98333.97;;;30.00;55.12
55217;BME280;41086;46.736;15.666;2023-09-12T08:41:41;98338.09;;;30.33;55.56
55217;BME280;41086;46.736;15.666;2023-09-12T08:44:08;98339.16;;;30.56;53.72
55217;BME280;41086;46.736;15.666;2023-09-12T08:46:35;98333.59;;;30.62;54.33
55217;BME280;41086;46.736;15.666;2023-09-12T08:49:04;98333.66;;;31.14;52.42
55217;BME280;41086;46.736;15.666;2023-09-12T08:51:33;98331.31;;;31.47;51.26
55217;BME280;41086;46.736;15.666;2023-09-12T08:54:00;98334.59;;;31.61;52.47
55217;BME280;41086;46.736;15.666;2023-09-12T08:56:28;98325.22;;;32.02;51.30
55217;BME280;41086;46.736;15.666;2023-09-12T08:58:55;98335.66;;;32.51;49.73
55217;BME280;41086;46.736;15.666;2023-09-12T09:01:23;98336.50;;;32.90;47.61
55217;BME280;41086;46.736;15.666;2023-09-12T09:03:50;98342.22;;;32.88;47.77
55217;BME280;41086;46.736;15.666;2023-09-12T09:06:17;98335.19;;;32.76;47.16
55217;BME280;41086;46.736;15.666;2023-09-12T09:08:46;98323.16;;;32.77;46.89
55217;BME280;41086;46.736;15.666;2023-09-12T09:11:14;98336.22;;;33.08;47.11
55217;BME280;41086;46.736;15.666;2023-09-12T09:13:40;98330.66;;;33.03;45.00
55217;BME280;41086;46.736;15.666;2023-09-12T09:16:15;98324.28;;;32.81;44.24
55217;BME280;41086;46.736;15.666;2023-09-12T09:18:56;98328.25;;;33.07;43.64
55217;BME280;41086;46.736;15.666;2023-09-12T09:21:31;98329.34;;;33.28;43.12
55217;BME280;41086;46.736;15.666;2023-09-12T09:24:03;98325.81;;;33.32;43.16
55217;BME280;41086;46.736;15.666;2023-09-12T09:26:41;98326.06;;;33.31;43.94
55217;BME280;41086;46.736;15.666;2023-09-12T09:29:08;98324.22;;;33.37;42.65
55217;BME280;41086;46.736;15.666;2023-09-12T09:31:38;98326.75;;;33.65;44.03
55217;BME280;41086;46.736;15.666;2023-09-12T09:34:10;98331.31;;;34.09;43.82
55217;BME280;41086;46.736;15.666;2023-09-12T09:36:37;98328.97;;;33.68;42.24
55217;BME280;41086;46.736;15.666;2023-09-12T09:39:06;98329.84;;;34.01;41.25
55217;BME280;41086;46.736;15.666;2023-09-12T09:41:34;98326.34;;;34.06;41.49
55217;BME280;41086;46.736;15.666;2023-09-12T09:44:01;98330.81;;;34.49;41.16
55217;BME280;41086;46.736;15.666;2023-09-12T09:46:27;98333.50;;;34.76;40.20
55217;BME280;41086;46.736;15.666;2023-09-12T09:48:54;98327.09;;;34.66;40.03
55217;BME280;41086;46.736;15.666;2023-09-12T09:51:21;98326.94;;;34.45;38.53
55217;BME280;41086;46.736;15.666;2023-09-12T09:53:51;98314.28;;;34.07;43.73
55217;BME280;41086;46.736;15.666;2023-09-12T09:56:18;98324.38;;;34.33;42.25
55217;BME280;41086;46.736;15.666;2023-09-12T09:58:48;98316.09;;;33.69;42.08
55217;BME280;41086;46.736;15.666;2023-09-12T10:01:17;98320.94;;;34.16;41.56
55217;BME280;41086;46.736;15.666;2023-09-12T10:03:45;98311.16;;;34.03;40.11
55217;BME280;41086;46.736;15.666;2023-09-12T10:06:12;98311.69;;;33.24;42.32
55217;BME280;41086;46.736;15.666;2023-09-12T10:08:40;98308.28;;;34.15;40.22
55217;BME280;41086;46.736;15.666;2023-09-12T10:11:07;98316.41;;;34.74;39.81
55217;BME280;41086;46.736;15.666;2023-09-12T10:13:34;98318.56;;;34.62;39.93
55217;BME280;41086;46.736;15.666;2023-09-12T10:16:02;98311.34;;;35.03;38.40
55217;BME280;41086;46.736;15.666;2023-09-12T10:18:33;98315.97;;;35.50;37.69
55217;BME280;41086;46.736;15.666;2023-09-12T10:21:06;98307.06;;;35.28;39.56
55217;BME280;41086;46.736;15.666;2023-09-12T10:23:44;98302.19;;;35.50;38.98
55217;BME280;41086;46.736;15.666;2023-09-12T10:26:11;98303.22;;;35.24;38.75
55217;BME280;41086;46.736;15.666;2023-09-12T10:28:42;98301.06;;;34.83;41.20
55217;BME280;41086;46.736;15.666;2023-09-12T10:31:11;98296.03;;;35.28;39.16
55217;BME280;41086;46.736;15.666;2023-09-12T10:33:38;98289.28;;;35.66;38.06
55217;BME280;41086;46.736;15.666;2023-09-12T10:36:05;98293.34;;;34.80;39.18
55217;BME280;41086;46.736;15.666;2023-09-12T10:38:32;98296.69;;;34.93;39.00
55217;BME280;41086;46.736;15.666;2023-09-12T10:41:00;98288.75;;;35.69;38.79
55217;BME280;41086;46.736;15.666;2023-09-12T10:43:28;98291.50;;;35.64;37.36
55217;BME280;41086;46.736;15.666;2023-09-12T10:45:55;98300.63;;;35.90;37.08
55217;BME280;41086;46.736;15.666;2023-09-12T10:48:23;98289.09;;;36.14;37.11
55217;BME280;41086;46.736;15.666;2023-09-12T10:50:49;98295.69;;;36.23;36.54
55217;BME280;41086;46.736;15.666;2023-09-12T10:53:16;98293.47;;;36.15;37.29
55217;BME280;41086;46.736;15.666;2023-09-12T10:55:57;98294.28;;;36.41;36.68
55217;BME280;41086;46.736;15.666;2023-09-12T10:58:24;98289.63;;;36.57;36.21
55217;BME280;41086;46.736;15.666;2023-09-12T11:03:56;98285.41;;;36.75;36.53
55217;BME280;41086;46.736;15.666;2023-09-12T11:06:28;98281.81;;;36.74;35.98
55217;BME280;41086;46.736;15.666;2023-09-12T11:11:40;98275.78;;;35.80;37.03
55217;BME280;41086;46.736;15.666;2023-09-12T11:14:08;98274.88;;;35.44;38.27
55217;BME280;41086;46.736;15.666;2023-09-12T11:16:35;98268.28;;;35.55;37.23
55217;BME280;41086;46.736;15.666;2023-09-12T11:19:20;98275.53;;;35.92;37.23
55217;BME280;41086;46.736;15.666;2023-09-12T11:21:51;98277.75;;;36.31;36.66
55217;BME280;41086;46.736;15.666;2023-09-12T11:24:19;98276.66;;;36.16;35.28
55217;BME280;41086;46.736;15.666;2023-09-12T11:26:56;98268.66;;;36.15;35.94
55217;BME280;41086;46.736;15.666;2023-09-12T11:29:30;98269.06;;;35.30;36.15
55217;BME280;41086;46.736;15.666;2023-09-12T11:32:01;98269.72;;;35.68;36.77
55217;BME280;41086;46.736;15.666;2023-09-12T11:34:30;98272.53;;;36.19;35.98
55217;BME280;41086;46.736;15.666;2023-09-12T11:37:02;98271.66;;;36.59;36.09
55217;BME280;41086;46.736;15.666;2023-09-12T11:39:31;98270.03;;;36.38;37.01
55217;BME280;41086;46.736;15.666;2023-09-12T11:41:59;98264.25;;;35.83;36.88
55217;BME280;41086;46.736;15.666;2023-09-12T11:44:26;98263.97;;;35.95;36.90
55217;BME280;41086;46.736;15.666;2023-09-12T11:46:53;98265.06;;;35.94;35.90
55217;BME280;41086;46.736;15.666;2023-09-12T11:49:21;98263.13;;;36.30;35.73
55217;BME280;41086;46.736;15.666;2023-09-12T11:51:51;98253.44;;;36.58;35.92
55217;BME280;41086;46.736;15.666;2023-09-12T11:54:19;98257.31;;;36.47;36.26
55217;BME280;41086;46.736;15.666;2023-09-12T11:56:47;98254.84;;;36.41;36.04
55217;BME280;41086;46.736;15.666;2023-09-12T11:59:14;98255.09;;;36.65;34.99
55217;BME280;41086;46.736;15.666;2023-09-12T12:01:41;98265.84;;;36.71;34.89
55217;BME280;41086;46.736;15.666;2023-09-12T12:04:08;98256.81;;;37.20;34.65
55217;BME280;41086;46.736;15.666;2023-09-12T12:06:36;98254.41;;;37.09;34.57
55217;BME280;41086;46.736;15.666;2023-09-12T12:09:02;98248.88;;;36.98;36.90
55217;BME280;41086;46.736;15.666;2023-09-12T12:11:30;98246.72;;;37.50;34.37
55217;BME280;41086;46.736;15.666;2023-09-12T12:13:58;98245.56;;;37.56;34.61
55217;BME280;41086;46.736;15.666;2023-09-12T12:16:25;98252.69;;;37.18;33.74
55217;BME280;41086;46.736;15.666;2023-09-12T12:18:53;98247.34;;;37.37;34.59
55217;BME280;41086;46.736;15.666;2023-09-12T12:21:23;98244.50;;;37.86;34.56
55217;BME280;41086;46.736;15.666;2023-09-12T12:24:00;98245.19;;;38.07;32.74
55217;BME280;41086;46.736;15.666;2023-09-12T12:26:27;98241.34;;;38.08;34.46
55217;BME280;41086;46.736;15.666;2023-09-12T12:28:53;98237.53;;;37.94;33.10
55217;BME280;41086;46.736;15.666;2023-09-12T12:31:20;98236.75;;;37.88;33.56
55217;BME280;41086;46.736;15.666;2023-09-12T12:33:55;98246.88;;;37.69;33.38
55217;BME280;41086;46.736;15.666;2023-09-12T12:36:42;98241.69;;;37.97;33.91
55217;BME280;41086;46.736;15.666;2023-09-12T12:39:23;98230.09;;;37.00;34.03
55217;BME280;41086;46.736;15.666;2023-09-12T12:41:53;98224.94;;;35.10;38.11
55217;BME280;41086;46.736;15.666;2023-09-12T12:44:20;98217.81;;;35.34;37.02
55217;BME280;41086;46.736;15.666;2023-09-12T12:46:53;98221.38;;;35.14;38.40
55217;BME280;41086;46.736;15.666;2023-09-12T12:49:20;98230.34;;;35.78;37.41
55217;BME280;41086;46.736;15.666;2023-09-12T12:51:47;98221.78;;;36.10;36.18
55217;BME280;41086;46.736;15.666;2023-09-12T12:54:14;98220.13;;;36.14;36.18
55217;BME280;41086;46.736;15.666;2023-09-12T12:56:42;98214.88;;;36.02;36.36